createdAt,value
2018-05-16T00:00:47.588Z,100813.63
2018-05-16T00:03:13.580Z,100815.74
2018-05-16T00:05:39.527Z,100812.24
2018-05-16T00:08:05.472Z,100813.94
2018-05-16T00:10:31.359Z,100810.30
2018-05-16T00:12:57.573Z,100806.28
2018-05-16T00:15:23.594Z,100797.06
2018-05-16T00:17:49.468Z,100803.52
2018-05-16T00:20:15.380Z,100802.55
2018-05-16T00:22:41.235Z,100805.65
2018-05-16T00:25:07.100Z,100802.69
2018-05-16T00:27:33.194Z,100807.14
2018-05-16T00:29:59.057Z,100804.11
2018-05-16T00:32:24.929Z,100798.84
2018-05-16T00:34:50.831Z,100807.17
2018-05-16T00:37:16.719Z,100805.10
2018-05-16T00:39:42.724Z,100807.02
2018-05-16T00:42:08.631Z,100808.91
2018-05-16T00:44:34.487Z,100810.45
2018-05-16T00:47:00.362Z,100809.33
2018-05-16T00:49:26.280Z,100800.55
2018-05-16T00:51:52.304Z,100809.45
2018-05-16T00:54:18.183Z,100805.65
2018-05-16T00:56:44.092Z,100813.59
2018-05-16T00:59:09.949Z,100807.89
2018-05-16T01:01:35.814Z,100805.02
2018-05-16T01:04:01.828Z,100800.81
2018-05-16T01:06:27.700Z,100794.86
2018-05-16T01:08:53.580Z,100799.31
2018-05-16T01:11:19.673Z,100804.27
2018-05-16T01:13:45.562Z,100801.70
2018-05-16T01:16:11.573Z,100805.77
2018-05-16T01:18:37.583Z,100806.27
2018-05-16T01:21:03.452Z,100802.72
2018-05-16T01:23:29.330Z,100801.03
2018-05-16T01:25:55.250Z,100802.45
2018-05-16T01:28:21.296Z,100803.40
2018-05-16T01:30:47.163Z,100799.57
2018-05-16T01:33:13.443Z,100800.53
2018-05-16T01:35:39.319Z,100808.54
2018-05-16T01:38:05.192Z,100805.94
2018-05-16T01:40:31.260Z,100801.11
2018-05-16T01:42:57.128Z,100784.98
2018-05-16T01:45:23.027Z,100794.17
2018-05-16T01:47:48.938Z,100796.72
2018-05-16T01:50:14.807Z,100796.30
2018-05-16T01:52:40.839Z,100785.39
2018-05-16T01:55:06.763Z,100789.79
2018-05-16T01:57:32.658Z,100793.82
2018-05-16T01:59:58.544Z,100799.97
2018-05-16T02:02:24.464Z,100800.04
2018-05-16T02:04:50.476Z,100800.03
2018-05-16T02:07:16.344Z,100795.33
2018-05-16T02:09:42.260Z,100795.33
2018-05-16T02:12:08.143Z,100802.35
2018-05-16T02:14:34.064Z,100802.81
2018-05-16T02:17:00.127Z,100797.52
2018-05-16T02:19:26.004Z,100799.53
2018-05-16T02:21:51.878Z,100800.89
2018-05-16T02:24:17.795Z,100793.49
2018-05-16T02:26:43.676Z,100787.92
2018-05-16T02:29:09.699Z,100789.32
2018-05-16T02:31:35.615Z,100781.84
2018-05-16T02:34:01.492Z,100786.69
2018-05-16T02:36:27.361Z,100788.91
2018-05-16T02:38:53.320Z,100789.34
2018-05-16T02:41:19.382Z,100786.35
2018-05-16T02:43:45.256Z,100786.30
2018-05-16T02:46:12.906Z,100788.90
2018-05-16T02:48:39.497Z,100789.52
2018-05-16T02:51:05.367Z,100784.75
2018-05-16T02:53:31.440Z,100787.48
2018-05-16T02:55:57.383Z,100783.71
2018-05-16T02:58:23.268Z,100783.63
2018-05-16T03:00:49.174Z,100790.08
2018-05-16T03:03:15.096Z,100796.78
2018-05-16T03:05:41.059Z,100791.16
2018-05-16T03:08:06.963Z,100786.08
2018-05-16T03:10:32.843Z,100789.05
2018-05-16T03:12:58.736Z,100786.64
2018-05-16T03:15:25.082Z,100787.23
2018-05-16T03:17:51.239Z,100777.52
2018-05-16T03:20:17.112Z,100770.95
2018-05-16T03:22:43.096Z,100782.42
2018-05-16T03:25:08.997Z,100783.06
2018-05-16T03:27:34.851Z,100785.91
2018-05-16T03:30:00.815Z,100784.43
2018-05-16T03:32:26.827Z,100788.60
2018-05-16T03:34:52.749Z,100780.14
2018-05-16T03:37:18.679Z,100790.59
2018-05-16T03:39:44.547Z,100792.09
2018-05-16T03:42:10.405Z,100788.00
2018-05-16T03:44:36.331Z,100795.36
2018-05-16T03:47:02.227Z,100787.02
2018-05-16T03:49:28.097Z,100787.69
2018-05-16T03:51:54.076Z,100790.56
2018-05-16T03:54:19.904Z,100792.17
2018-05-16T03:56:45.775Z,100794.67
2018-05-16T03:59:24.862Z,100791.97
2018-05-16T04:02:02.984Z,100791.62
2018-05-16T04:04:28.918Z,100794.84
2018-05-16T04:06:54.793Z,100788.66
2018-05-16T04:09:21.552Z,100789.23
2018-05-16T04:11:47.479Z,100786.09
2018-05-16T04:14:13.372Z,100781.42
2018-05-16T04:16:39.239Z,100781.22
2018-05-16T04:19:05.163Z,100779.29
2018-05-16T04:21:31.138Z,100779.60
2018-05-16T04:23:57.009Z,100783.73
2018-05-16T04:26:22.936Z,100780.17
2018-05-16T04:28:48.841Z,100791.10
2018-05-16T04:31:14.708Z,100795.33
2018-05-16T04:33:40.761Z,100790.48
2018-05-16T04:36:06.640Z,100794.35
2018-05-16T04:38:32.527Z,100807.84
2018-05-16T04:40:58.455Z,100800.14
2018-05-16T04:43:24.330Z,100805.78
2018-05-16T04:45:50.275Z,100812.33
2018-05-16T04:48:16.208Z,100810.42
2018-05-16T04:50:42.080Z,100808.55
2018-05-16T04:53:07.965Z,100806.34
2018-05-16T04:55:33.943Z,100810.81
2018-05-16T04:57:59.904Z,100806.60
2018-05-16T05:00:25.796Z,100809.20
2018-05-16T05:02:51.704Z,100812.61
2018-05-16T05:05:17.598Z,100816.38
2018-05-16T05:07:43.460Z,100814.72
2018-05-16T05:10:09.473Z,100809.21
2018-05-16T05:12:35.336Z,100796.13
2018-05-16T05:15:01.204Z,100793.41
2018-05-16T05:17:27.115Z,100796.66
2018-05-16T05:19:52.992Z,100797.43
2018-05-16T05:22:18.955Z,100798.19
2018-05-16T05:24:44.892Z,100797.67
2018-05-16T05:27:10.787Z,100796.66
2018-05-16T05:29:36.679Z,100804.81
2018-05-16T05:32:02.599Z,100806.50
2018-05-16T05:34:28.562Z,100802.09
2018-05-16T05:36:54.456Z,100811.78
2018-05-16T05:39:20.385Z,100806.78
2018-05-16T05:41:46.292Z,100804.69
2018-05-16T05:44:12.199Z,100814.59
2018-05-16T05:46:38.199Z,100802.19
2018-05-16T05:49:04.093Z,100797.25
2018-05-16T05:51:30.007Z,100802.14
2018-05-16T05:53:55.955Z,100801.43
2018-05-16T05:56:21.864Z,100793.67
2018-05-16T05:58:47.822Z,100797.75
2018-05-16T06:01:13.747Z,100807.42
2018-05-16T06:03:44.443Z,100808.33
2018-05-16T06:06:10.323Z,100805.13
2018-05-16T06:08:36.256Z,100810.45
2018-05-16T06:11:02.264Z,100812.07
2018-05-16T06:13:28.142Z,100810.48
2018-05-16T06:15:54.084Z,100803.92
2018-05-16T06:18:19.990Z,100807.23
2018-05-16T06:20:45.876Z,100800.80
2018-05-16T06:23:11.875Z,100799.46
2018-05-16T06:25:37.751Z,100796.36
2018-05-16T06:28:03.643Z,100795.63
2018-05-16T06:30:29.556Z,100793.56
2018-05-16T06:32:57.733Z,100788.91
2018-05-16T06:35:23.692Z,100788.56
2018-05-16T06:37:49.629Z,100794.73
2018-05-16T06:40:15.522Z,100798.34
2018-05-16T06:42:41.392Z,100800.72
2018-05-16T06:45:07.316Z,100803.46
2018-05-16T06:47:33.303Z,100808.30
2018-05-16T06:49:59.192Z,100811.27
2018-05-16T06:52:25.136Z,100812.95
2018-05-16T06:54:51.050Z,100813.53
2018-05-16T06:57:16.921Z,100815.56
2018-05-16T06:59:42.952Z,100823.13
2018-05-16T07:02:08.852Z,100824.43
2018-05-16T07:04:34.739Z,100825.83
2018-05-16T07:07:00.676Z,100820.45
2018-05-16T07:09:26.551Z,100827.03
2018-05-16T07:11:52.511Z,100824.64
2018-05-16T07:14:18.445Z,100828.12
2018-05-16T07:16:44.328Z,100829.63
2018-05-16T07:19:10.196Z,100823.05
2018-05-16T07:21:36.120Z,100822.48
2018-05-16T07:24:02.083Z,100824.36
2018-05-16T07:26:27.964Z,100827.66
2018-05-16T07:28:53.879Z,100829.56
2018-05-16T07:31:19.784Z,100823.13
2018-05-16T07:33:45.677Z,100827.19
2018-05-16T07:36:11.715Z,100819.45
2018-05-16T07:38:37.630Z,100813.86
2018-05-16T07:41:03.526Z,100804.11
2018-05-16T07:43:29.440Z,100811.23
2018-05-16T07:45:55.318Z,100816.48
2018-05-16T07:48:21.280Z,100815.43
2018-05-16T07:50:47.211Z,100807.85
2018-05-16T07:53:13.104Z,100812.22
2018-05-16T07:55:38.980Z,100815.97
2018-05-16T07:58:12.359Z,100821.91
2018-05-16T08:00:39.124Z,100815.70
2018-05-16T08:03:05.016Z,100817.98
2018-05-16T08:05:31.228Z,100817.91
2018-05-16T08:07:57.116Z,100818.84
2018-05-16T08:10:23.541Z,100814.02
2018-05-16T08:12:49.500Z,100811.86
2018-05-16T08:15:15.390Z,100811.23
2018-05-16T08:17:42.076Z,100814.94
2018-05-16T08:20:08.000Z,100809.27
2018-05-16T08:22:33.896Z,100807.39
2018-05-16T08:25:00.702Z,100802.78
2018-05-16T08:27:26.624Z,100799.16
2018-05-16T08:29:52.508Z,100798.63
2018-05-16T08:32:18.403Z,100803.85
2018-05-16T08:34:44.377Z,100796.73
2018-05-16T08:37:10.280Z,100801.03
2018-05-16T08:39:36.171Z,100803.05
2018-05-16T08:42:02.103Z,100804.72
2018-05-16T08:44:27.995Z,100807.73
2018-05-16T08:46:53.926Z,100802.52
2018-05-16T08:49:19.934Z,100805.00
2018-05-16T08:51:46.008Z,100808.89
2018-05-16T08:54:13.167Z,100807.63
2018-05-16T08:56:39.281Z,100810.10
2018-05-16T08:59:05.223Z,100814.42
2018-05-16T09:01:31.199Z,100807.31
2018-05-16T09:03:57.247Z,100809.92
2018-05-16T09:06:23.125Z,100815.25
2018-05-16T09:08:49.620Z,100805.95
2018-05-16T09:11:16.100Z,100804.80
2018-05-16T09:13:42.877Z,100809.73
2018-05-16T09:16:09.188Z,100812.69
2018-05-16T09:18:35.336Z,100814.86
2018-05-16T09:21:01.660Z,100813.84
2018-05-16T09:23:27.936Z,100816.05
2018-05-16T09:25:54.004Z,100813.69
2018-05-16T09:28:20.001Z,100798.84
2018-05-16T09:30:45.917Z,100817.09
2018-05-16T09:33:12.021Z,100812.17
2018-05-16T09:35:38.361Z,100816.98
2018-05-16T09:38:04.448Z,100816.59
2018-05-16T09:40:30.564Z,100818.09
2018-05-16T09:42:56.717Z,100820.11
2018-05-16T09:45:24.915Z,100821.09
2018-05-16T09:47:52.663Z,100826.08
2018-05-16T09:50:20.039Z,100818.48
2018-05-16T09:52:46.901Z,100816.33
2018-05-16T09:55:13.095Z,100818.05
2018-05-16T09:57:40.623Z,100816.83
2018-05-16T10:00:06.584Z,100826.65
2018-05-16T10:02:32.565Z,100824.88
2018-05-16T10:04:58.457Z,100821.66
2018-05-16T10:07:24.337Z,100824.76
2018-05-16T10:09:50.285Z,100829.93
2018-05-16T10:12:16.154Z,100822.69
2018-05-16T10:14:42.072Z,100815.41
2018-05-16T10:17:08.040Z,100816.78
2018-05-16T10:19:33.960Z,100815.83
2018-05-16T10:21:59.854Z,100812.87
2018-05-16T10:24:26.855Z,100810.10
2018-05-16T10:26:52.800Z,100804.25
2018-05-16T10:29:18.670Z,100809.30
2018-05-16T10:31:44.608Z,100811.02
2018-05-16T10:34:10.501Z,100811.50
2018-05-16T10:36:36.384Z,100805.66
2018-05-16T10:39:02.340Z,100813.71
2018-05-16T10:41:28.243Z,100809.27
2018-05-16T10:43:54.127Z,100807.39
2018-05-16T10:46:20.057Z,100812.17
2018-05-16T10:48:45.928Z,100806.19
2018-05-16T10:51:11.851Z,100811.89
2018-05-16T10:53:38.868Z,100809.80
2018-05-16T10:56:04.770Z,100810.39
2018-05-16T10:58:30.657Z,100803.20
2018-05-16T11:00:56.586Z,100804.28
2018-05-16T11:03:22.634Z,100794.80
2018-05-16T11:05:48.484Z,100800.16
2018-05-16T11:08:14.519Z,100790.19
2018-05-16T11:10:40.400Z,100792.34
2018-05-16T11:13:06.276Z,100791.31
2018-05-16T11:15:32.273Z,100792.95
2018-05-16T11:17:58.160Z,100794.31
2018-05-16T11:20:24.052Z,100784.94
2018-05-16T11:22:49.995Z,100790.06
2018-05-16T11:25:15.940Z,100774.79
2018-05-16T11:27:42.747Z,100776.14
2018-05-16T11:30:08.700Z,100768.60
2018-05-16T11:32:34.588Z,100770.52
2018-05-16T11:35:00.482Z,100775.06
2018-05-16T11:37:26.421Z,100762.85
2018-05-16T11:39:52.343Z,100765.33
2018-05-16T11:42:18.322Z,100767.39
2018-05-16T11:44:44.393Z,100769.73
2018-05-16T11:47:10.264Z,100769.59
2018-05-16T11:49:36.157Z,100769.55
2018-05-16T11:52:02.433Z,100770.91
2018-05-16T11:54:28.319Z,100768.70
2018-05-16T11:56:54.202Z,100768.08
2018-05-16T11:59:20.139Z,100773.54
2018-05-16T12:01:46.009Z,100769.72
2018-05-16T12:04:11.896Z,100764.95
2018-05-16T12:06:37.841Z,100758.63
2018-05-16T12:09:05.102Z,100763.83
2018-05-16T12:11:30.974Z,100757.28
2018-05-16T12:13:56.975Z,100763.48
2018-05-16T12:16:22.861Z,100753.84
2018-05-16T12:18:48.771Z,100751.78
2018-05-16T12:21:15.435Z,100754.27
2018-05-16T12:23:41.339Z,100761.31
2018-05-16T12:26:07.220Z,100751.02
2018-05-16T12:28:33.426Z,100754.41
2018-05-16T12:30:59.302Z,100746.58
2018-05-16T12:33:25.224Z,100748.86
2018-05-16T12:35:51.127Z,100747.06
2018-05-16T12:38:17.008Z,100748.27
2018-05-16T12:40:42.897Z,100746.23
2018-05-16T12:43:15.675Z,100745.72
2018-05-16T12:45:41.799Z,100730.39
2018-05-16T12:48:07.685Z,100737.03
2018-05-16T12:50:33.635Z,100739.84
2018-05-16T12:52:59.704Z,100734.83
2018-05-16T12:55:25.603Z,100730.94
2018-05-16T12:57:51.524Z,100725.31
2018-05-16T13:00:17.396Z,100727.97
2018-05-16T13:02:43.332Z,100725.27
2018-05-16T13:05:09.265Z,100725.16
2018-05-16T13:07:35.192Z,100718.81
2018-05-16T13:10:01.091Z,100712.08
2018-05-16T13:12:27.027Z,100712.59
2018-05-16T13:14:52.912Z,100706.92
2018-05-16T13:17:18.787Z,100711.94
2018-05-16T13:19:44.722Z,100711.81
2018-05-16T13:22:10.614Z,100718.34
2018-05-16T13:24:36.503Z,100720.89
2018-05-16T13:27:03.692Z,100719.88
2018-05-16T13:29:31.272Z,100714.89
2018-05-16T13:31:57.216Z,100715.34
2018-05-16T13:34:23.232Z,100713.91
2018-05-16T13:36:49.117Z,100710.23
2018-05-16T13:39:15.001Z,100711.77
2018-05-16T13:41:41.033Z,100708.73
2018-05-16T13:44:06.917Z,100702.84
2018-05-16T13:46:32.857Z,100704.51
2018-05-16T13:48:58.765Z,100703.12
2018-05-16T13:51:25.143Z,100698.52
2018-05-16T13:53:51.152Z,100705.57
2018-05-16T13:56:17.165Z,100705.67
2018-05-16T13:58:43.019Z,100699.69
2018-05-16T14:01:08.898Z,100700.16
2018-05-16T14:03:37.317Z,100696.41
2018-05-16T14:06:03.300Z,100693.84
2018-05-16T14:08:29.181Z,100699.48
2018-05-16T14:10:55.129Z,100697.34
2018-05-16T14:13:21.060Z,100690.40
2018-05-16T14:15:46.953Z,100694.83
2018-05-16T14:18:12.962Z,100692.85
2018-05-16T14:20:38.855Z,100691.95
2018-05-16T14:23:04.821Z,100687.53
2018-05-16T14:25:30.743Z,100679.80
2018-05-16T14:27:56.609Z,100672.03
2018-05-16T14:30:22.563Z,100676.47
2018-05-16T14:32:48.517Z,100676.02
2018-05-16T14:35:14.401Z,100686.43
2018-05-16T14:37:40.282Z,100677.84
2018-05-16T14:40:06.235Z,100676.43
2018-05-16T14:42:32.305Z,100677.47
2018-05-16T14:44:58.205Z,100678.33
2018-05-16T14:47:24.146Z,100674.95
2018-05-16T14:49:50.020Z,100676.91
2018-05-16T14:52:15.921Z,100674.58
2018-05-16T14:54:41.931Z,100679.94
2018-05-16T14:57:07.804Z,100674.91
2018-05-16T14:59:33.697Z,100676.97
2018-05-16T15:01:59.607Z,100675.87
2018-05-16T15:04:25.522Z,100682.78
2018-05-16T15:06:51.728Z,100674.98
2018-05-16T15:09:17.679Z,100683.02
2018-05-16T15:11:43.560Z,100674.84
2018-05-16T15:14:09.433Z,100671.93
2018-05-16T15:16:35.400Z,100674.42
2018-05-16T15:19:01.392Z,100676.44
2018-05-16T15:21:27.319Z,100680.25
2018-05-16T15:23:53.575Z,100669.75
2018-05-16T15:26:19.464Z,100672.24
2018-05-16T15:28:45.352Z,100670.69
2018-05-16T15:31:11.788Z,100673.50
2018-05-16T15:33:37.684Z,100672.21
2018-05-16T15:36:03.565Z,100681.33
2018-05-16T15:38:29.668Z,100683.38
2018-05-16T15:40:55.440Z,100676.09
2018-05-16T15:43:21.413Z,100679.97
2018-05-16T15:45:47.351Z,100683.77
2018-05-16T15:48:13.231Z,100675.61
2018-05-16T15:50:39.127Z,100676.52
2018-05-16T15:53:05.116Z,100685.12
2018-05-16T15:55:31.109Z,100689.47
2018-05-16T15:57:56.998Z,100684.06
2018-05-16T16:00:23.283Z,100680.84
2018-05-16T16:02:49.199Z,100682.41
2018-05-16T16:05:15.087Z,100689.16
2018-05-16T16:07:41.113Z,100690.67
2018-05-16T16:10:07.064Z,100692.95
2018-05-16T16:12:32.992Z,100692.61
2018-05-16T16:14:58.933Z,100691.55
2018-05-16T16:17:24.820Z,100694.66
2018-05-16T16:19:50.801Z,100690.00
2018-05-16T16:22:16.757Z,100688.48
2018-05-16T16:24:42.632Z,100694.84
2018-05-16T16:27:08.595Z,100697.05
2018-05-16T16:29:34.548Z,100692.31
2018-05-16T16:32:00.515Z,100691.13
2018-05-16T16:34:26.408Z,100693.97
2018-05-16T16:36:52.425Z,100693.16
2018-05-16T16:39:18.309Z,100690.47
2018-05-16T16:41:44.195Z,100696.06
2018-05-16T16:44:10.225Z,100695.58
2018-05-16T16:46:36.113Z,100687.80
2018-05-16T16:49:02.000Z,100682.48
2018-05-16T16:51:27.959Z,100688.50
2018-05-16T16:53:54.094Z,100682.06
2018-05-16T16:56:20.076Z,100676.70
2018-05-16T16:58:46.020Z,100675.14
2018-05-16T17:01:11.912Z,100670.26
2018-05-16T17:03:37.787Z,100667.09
2018-05-16T17:06:03.744Z,100666.83
2018-05-16T17:08:29.719Z,100666.54
2018-05-16T17:10:55.600Z,100668.58
2018-05-16T17:13:21.527Z,100664.88
2018-05-16T17:16:00.812Z,100671.41
2018-05-16T17:18:26.834Z,100674.09
2018-05-16T17:20:52.813Z,100674.59
2018-05-16T17:23:18.723Z,100676.92
2018-05-16T17:25:44.664Z,100676.92
2018-05-16T17:28:10.563Z,100676.95
2018-05-16T17:30:36.484Z,100679.16
2018-05-16T17:33:02.561Z,100680.83
2018-05-16T17:35:28.448Z,100679.02
2018-05-16T17:37:54.389Z,100678.84
2018-05-16T17:40:20.327Z,100671.34
2018-05-16T17:42:46.191Z,100676.22
2018-05-16T17:45:12.201Z,100670.93
2018-05-16T17:47:38.133Z,100671.66
2018-05-16T17:50:04.013Z,100667.75
2018-05-16T17:52:29.892Z,100671.74
2018-05-16T17:54:55.867Z,100670.70
2018-05-16T17:57:21.837Z,100669.30
2018-05-16T17:59:47.727Z,100674.25
2018-05-16T18:02:13.663Z,100674.63
2018-05-16T18:04:39.543Z,100677.66
2018-05-16T18:07:05.420Z,100677.99
2018-05-16T18:09:31.444Z,100681.31
2018-05-16T18:11:57.334Z,100683.64
2018-05-16T18:17:33.231Z,100686.27
2018-05-16T18:19:59.262Z,100689.47
2018-05-16T18:22:25.185Z,100688.33
2018-05-16T18:24:51.093Z,100689.63
2018-05-16T18:27:17.051Z,100694.34
2018-05-16T18:29:43.046Z,100693.06
2018-05-16T18:32:08.990Z,100695.05
2018-05-16T18:34:34.915Z,100696.59
2018-05-16T18:37:00.812Z,100703.39
2018-05-16T18:39:26.691Z,100697.82
2018-05-16T18:41:52.636Z,100702.19
2018-05-16T18:44:18.591Z,100702.75
2018-05-16T18:46:44.469Z,100711.31
2018-05-16T18:49:10.453Z,100710.77
2018-05-16T18:51:36.336Z,100705.65
2018-05-16T18:54:02.233Z,100707.30
2018-05-16T18:56:28.276Z,100712.36
2018-05-16T18:58:54.744Z,100713.80
2018-05-16T19:01:20.748Z,100710.31
2018-05-16T19:03:46.989Z,100722.72
2018-05-16T19:06:12.874Z,100727.09
2018-05-16T19:08:38.901Z,100732.88
2018-05-16T19:11:04.848Z,100722.98
2018-05-16T19:13:30.727Z,100731.89
2018-05-16T19:15:56.611Z,100729.69
2018-05-16T19:18:22.603Z,100729.38
2018-05-16T19:20:48.619Z,100736.05
2018-05-16T19:23:14.502Z,100738.97
2018-05-16T19:25:40.455Z,100728.59
2018-05-16T19:28:06.409Z,100741.34
2018-05-16T19:30:32.708Z,100743.05
2018-05-16T19:32:58.715Z,100739.92
2018-05-16T19:35:24.596Z,100749.45
2018-05-16T19:37:50.512Z,100745.67
2018-05-16T19:40:16.492Z,100742.52
2018-05-16T19:42:42.822Z,100738.59
2018-05-16T19:45:08.808Z,100743.88
2018-05-16T19:47:35.060Z,100749.87
2018-05-16T19:50:00.975Z,100746.38
2018-05-16T19:52:26.917Z,100746.95
2018-05-16T19:54:53.243Z,100745.42
2018-05-16T19:57:19.250Z,100746.64
2018-05-16T19:59:45.144Z,100750.00
2018-05-16T20:02:11.092Z,100756.72
2018-05-16T20:04:37.035Z,100751.20
2018-05-16T20:07:03.894Z,100751.60
2018-05-16T20:09:29.935Z,100750.47
2018-05-16T20:11:55.862Z,100754.48
2018-05-16T20:14:21.740Z,100752.36
2018-05-16T20:16:47.735Z,100756.72
2018-05-16T20:19:14.001Z,100754.20
2018-05-16T20:21:40.012Z,100755.24
2018-05-16T20:24:05.947Z,100752.94
2018-05-16T20:26:33.231Z,100755.73
2018-05-16T20:28:59.152Z,100756.13
2018-05-16T20:31:25.376Z,100757.73
2018-05-16T20:33:51.380Z,100756.92
2018-05-16T20:36:17.268Z,100752.19
2018-05-16T20:38:44.280Z,100754.38
2018-05-16T20:41:10.168Z,100757.94
2018-05-16T20:43:38.143Z,100756.17
2018-05-16T20:46:04.172Z,100754.34
2018-05-16T20:48:30.100Z,100755.90
2018-05-16T20:50:55.983Z,100757.65
2018-05-16T20:53:21.908Z,100756.18
2018-05-16T20:55:47.787Z,100762.80
2018-05-16T20:58:13.760Z,100761.33
2018-05-16T21:00:39.695Z,100756.83
2018-05-16T21:03:05.588Z,100755.45
2018-05-16T21:05:31.463Z,100755.41
2018-05-16T21:07:57.380Z,100757.42
2018-05-16T21:10:23.379Z,100750.20
2018-05-16T21:12:49.272Z,100751.70
2018-05-16T21:15:15.213Z,100744.09
2018-05-16T21:17:41.112Z,100748.25
2018-05-16T21:20:06.993Z,100742.69
2018-05-16T21:22:33.011Z,100741.11
2018-05-16T21:24:58.880Z,100743.14
2018-05-16T21:27:24.755Z,100743.31
2018-05-16T21:29:57.593Z,100743.44
2018-05-16T21:32:23.472Z,100749.17
2018-05-16T21:34:49.431Z,100755.52
2018-05-16T21:37:15.363Z,100751.47
2018-05-16T21:39:41.289Z,100758.47
2018-05-16T21:42:07.112Z,100749.19
2018-05-16T21:44:33.039Z,100753.75
2018-05-16T21:46:58.980Z,100753.07
2018-05-16T21:49:24.887Z,100765.00
2018-05-16T21:51:50.890Z,100743.95
2018-05-16T21:54:17.816Z,100742.63
2018-05-16T21:56:43.771Z,100749.88
2018-05-16T21:59:09.732Z,100748.16
2018-05-16T22:01:35.635Z,100746.66
2018-05-16T22:04:01.504Z,100744.71
2018-05-16T22:06:27.439Z,100742.20
2018-05-16T22:08:53.311Z,100744.57
2018-05-16T22:11:19.275Z,100743.34
2018-05-16T22:13:45.212Z,100744.80
2018-05-16T22:16:11.130Z,100747.59
2018-05-16T22:18:37.059Z,100747.28
2018-05-16T22:21:02.970Z,100744.25
2018-05-16T22:23:28.944Z,100734.47
2018-05-16T22:25:54.841Z,100735.19
2018-05-16T22:28:20.854Z,100735.84
2018-05-16T22:30:52.960Z,100732.88
2018-05-16T22:33:24.919Z,100742.95
2018-05-16T22:35:57.024Z,100743.47
2018-05-16T22:38:29.024Z,100741.28
2018-05-16T22:41:01.056Z,100738.09
2018-05-16T22:43:26.989Z,100736.59
2018-05-16T22:45:56.294Z,100737.25
2018-05-16T22:48:22.167Z,100734.80
2018-05-16T22:50:48.039Z,100729.20
2018-05-16T22:53:13.968Z,100728.42
2018-05-16T22:55:39.852Z,100726.80
2018-05-16T22:58:05.843Z,100722.95
2018-05-16T23:00:31.872Z,100724.27
2018-05-16T23:02:57.742Z,100723.91
2018-05-16T23:05:23.604Z,100719.22
2018-05-16T23:07:49.522Z,100713.63
2018-05-16T23:10:15.504Z,100716.39
2018-05-16T23:12:41.388Z,100705.64
2018-05-16T23:15:07.302Z,100713.34
2018-05-16T23:17:33.165Z,100708.64
2018-05-16T23:19:59.058Z,100707.32
2018-05-16T23:22:25.085Z,100702.73
2018-05-16T23:24:50.976Z,100696.30
2018-05-16T23:27:16.898Z,100702.56
2018-05-16T23:29:42.839Z,100692.50
2018-05-16T23:32:08.740Z,100686.27
2018-05-16T23:34:34.825Z,100688.94
2018-05-16T23:37:00.743Z,100683.11
2018-05-16T23:39:26.611Z,100687.13
2018-05-16T23:41:52.498Z,100692.69
2018-05-16T23:44:18.424Z,100690.77
2018-05-16T23:46:44.373Z,100692.39
2018-05-16T23:49:10.257Z,100700.66
2018-05-16T23:51:36.188Z,100695.16
2018-05-16T23:54:02.063Z,100694.73
2018-05-16T23:56:27.926Z,100698.06
2018-05-16T23:58:53.935Z,100694.36
